| time (UTC) | temp F | wind direction | speed MPH | gust MPH | rain 1hr in | rain 24hr in | rain mn in | humidity % | barometer mb |
| 20260508091006 | 51 | 45 | 4.0 | 7.0 | 0.00 | 1.04 | 1.03 | 17 | 1031.1 |
| 20260508085005 | 51 | 0 | 3.0 | 7.0 | 0.00 | 1.04 | 1.03 | 17 | 1031.2 |
| 20260508084007 | 53 | 90 | 1.0 | 6.0 | 0.00 | 1.04 | 1.03 | 17 | 1031.1 |
| 20260508083006 | 53 | 135 | 2.0 | 5.0 | 0.00 | 1.04 | 1.03 | 17 | 1031.0 |
| 20260508082006 | 53 | 135 | 2.0 | 6.0 | 0.00 | 1.04 | 1.03 | 17 | 1031.2 |
| 20260508081006 | 52 | 180 | 2.0 | 5.0 | 0.00 | 1.04 | 1.03 | 17 | 1031.0 |
| 20260508075006 | 52 | 270 | 1.0 | 6.0 | 0.00 | 1.04 | 1.03 | 17 | 1031.0 |
| 20260508073006 | 52 | 90 | 1.0 | 5.0 | 0.00 | 1.04 | 1.03 | 17 | 1030.5 |
| 20260508072006 | 51 | 45 | 1.0 | 6.0 | 0.00 | 1.04 | 1.03 | 17 | 1030.6 |
| 20260508071006 | 51 | 45 | 2.0 | 10.0 | 0.00 | 1.04 | 1.03 | 17 | 1030.3 |
| 20260508065006 | 49 | 90 | 3.0 | 6.0 | 0.00 | 1.04 | 1.03 | 17 | 1030.5 |
| 20260508064005 | 50 | 45 | 1.0 | 5.0 | 0.00 | 1.04 | 1.03 | 17 | 1030.5 |
| 20260508063006 | 49 | 45 | 3.0 | 6.0 | 0.00 | 1.04 | 1.03 | 17 | 1030.4 |
| 20260508062006 | 50 | 0 | 1.0 | 5.0 | 0.00 | 1.04 | 1.03 | 17 | 1030.3 |
| 20260508061006 | 49 | 0 | 1.0 | 8.0 | 0.00 | 1.04 | 1.03 | 17 | 1030.2 |
| 20260508055006 | 49 | 45 | 2.0 | 6.0 | 0.00 | 1.04 | 1.03 | 17 | 1030.0 |
| 20260508053006 | 49 | 0 | 1.0 | 3.0 | 0.00 | 1.04 | 1.03 | 17 | 1029.7 |
| 20260508052005 | 49 | 45 | 1.0 | 3.0 | 0.50 | 1.04 | 1.03 | 17 | 1029.9 |
| 20260508045006 | 48 | 0 | 2.0 | 5.0 | 0.50 | 1.04 | 1.03 | 17 | 1029.4 |
| 20260508044006 | 47 | 45 | 0.0 | 8.0 | 0.50 | 1.04 | 1.03 | 17 | 1029.3 |
| 20260508043006 | 44 | 0 | 3.0 | 8.0 | 0.50 | 1.04 | 1.03 | 17 | 997.0 |
| 20260508042021 | 45 | 90 | 2.0 | 5.0 | 0.50 | 1.04 | 1.03 | 17 | 1029.1 |
| 20260508041021 | 45 | 90 | 1.0 | 1.0 | 0.50 | 1.04 | 1.03 | 17 | 1029.1 |
| 20260508035006 | 40 | 225 | 0.0 | 1.0 | 0.50 | 1.04 | 1.03 | 17 | 1028.8 |
| 20260508034005 | 37 | 270 | 0.0 | 6.0 | 0.50 | 1.04 | 1.03 | 17 | 1028.6 |
| 20260508033006 | 45 | 45 | 1.0 | 6.0 | 0.50 | 1.04 | 1.03 | 17 | 996.4 |
| 20260508032006 | 33 | 225 | 0.0 | 0.0 | 0.00 | 1.04 | 1.03 | 17 | 1028.5 |
| 20260508031005 | 31 | 270 | 0.0 | 0.0 | 0.00 | 1.04 | 1.03 | 17 | 1028.4 |
| 20260508025006 | 29 | 180 | 1.0 | 1.0 | 0.00 | 1.04 | 1.03 | 17 | 1028.3 |
| 20260508024006 | 29 | 270 | 0.0 | 1.0 | 0.00 | 1.04 | 1.03 | 17 | 1028.4 |
| 20260508023006 | 28 | 270 | 1.0 | 1.0 | 0.00 | 1.04 | 1.03 | 17 | 1028.0 |
| 20260508022006 | 28 | 225 | 0.0 | 1.0 | 0.00 | 1.04 | 1.03 | 17 | 1028.1 |
| 20260508021006 | 28 | 270 | 0.0 | 0.0 | 0.00 | 1.04 | 1.03 | 17 | 1027.9 |
| 20260508015005 | 28 | 225 | 1.0 | 2.0 | 0.00 | 1.04 | 1.03 | 17 | 1027.8 |
| 20260508014007 | 27 | 270 | 0.0 | 0.0 | 0.00 | 1.04 | 1.03 | 17 | 1027.5 |
| 20260508011006 | 27 | 270 | 0.0 | 1.0 | 0.00 | 1.04 | 1.03 | 17 | 1027.2 |
| 20260508005005 | 28 | 225 | 1.0 | 2.0 | 0.00 | 1.04 | 1.03 | 17 | 1027.0 |
| 20260508004005 | 28 | 270 | 1.0 | 2.0 | 0.00 | 1.04 | 1.03 | 17 | 1027.0 |
| 20260508002006 | 28 | 225 | 1.0 | 2.0 | 0.00 | 1.04 | 1.03 | 17 | 1026.7 |
| 20260508001006 | 28 | 225 | 1.0 | 1.0 | 0.00 | 1.04 | 1.03 | 17 | 1026.7 |
| 20260507235006 | 28 | 225 | 1.0 | 1.0 | 0.00 | 1.04 | 1.03 | 17 | 1026.4 |
| 20260507234006 | 28 | 270 | 1.0 | 1.0 | 0.00 | 1.04 | 1.03 | 17 | 1026.4 |
| 20260507233005 | 28 | 225 | 0.0 | 1.0 | 0.00 | 1.04 | 1.03 | 17 | 1026.4 |
| 20260507232005 | 28 | 180 | 1.0 | 1.0 | 0.00 | 1.04 | 1.03 | 17 | 1026.1 |
| 20260507231006 | 29 | 225 | 1.0 | 6.0 | 0.00 | 1.04 | 1.03 | 17 | 1025.9 |
| 20260507225007 | 29 | 270 | 0.0 | 1.0 | 0.00 | 1.04 | 1.03 | 17 | 1025.8 |
| 20260507224006 | 29 | 270 | 1.0 | 1.0 | 0.00 | 1.04 | 1.03 | 17 | 1025.6 |
| 20260507223005 | 29 | 270 | 1.0 | 1.0 | 0.00 | 1.04 | 1.03 | 17 | 1025.5 |
| 20260507221005 | 29 | 270 | 1.0 | 7.0 | 0.00 | 1.04 | 1.03 | 17 | 1025.4 |
| 20260507215005 | 29 | 225 | 0.0 | 1.0 | 0.00 | 1.04 | 1.03 | 17 | 1025.3 |
| 20260507214005 | 29 | 270 | 0.0 | 2.0 | 0.00 | 1.04 | 1.03 | 17 | 1025.3 |
| 20260507213006 | 29 | 225 | 0.0 | 0.0 | 0.00 | 1.04 | 1.03 | 17 | 1025.1 |
| 20260507212006 | 29 | 270 | 0.0 | 0.0 | 0.50 | 1.04 | 1.03 | 17 | 1025.0 |
| 20260507211006 | 29 | 225 | 0.0 | 12.0 | 0.50 | 1.04 | 1.03 | 17 | 1024.6 |
| 20260507205005 | 30 | 225 | 0.0 | 1.0 | 0.50 | 1.04 | 1.03 | 17 | 1024.5 |
| 20260507204006 | 31 | 225 | 0.0 | 10.0 | 0.50 | 1.04 | 1.03 | 17 | 1024.4 |
| 20260507203005 | 41 | 270 | 2.0 | 10.0 | 0.50 | 1.04 | 1.03 | 17 | 990.3 |
| 20260507202006 | 32 | 225 | 0.0 | 1.0 | 0.50 | 1.04 | 1.03 | 17 | 1024.2 |
| 20260507201005 | 33 | 180 | 1.0 | 1.0 | 0.50 | 1.04 | 1.03 | 17 | 1024.1 |
| 20260507195005 | 35 | 225 | 1.0 | 3.0 | 0.50 | 1.04 | 1.03 | 17 | 1024.0 |
| 20260507194006 | 36 | 180 | 1.0 | 10.0 | 0.50 | 1.04 | 1.03 | 17 | 1023.9 |
| 20260507193006 | 41 | 225 | 2.0 | 10.0 | 0.50 | 1.04 | 1.03 | 17 | 989.6 |
| 20260507192007 | 37 | 225 | 0.0 | 1.0 | 0.00 | 1.03 | 1.03 | 17 | 1023.8 |
| 20260507191006 | 38 | 45 | 1.0 | 2.0 | 0.00 | 1.03 | 1.03 | 17 | 1023.7 |
| 20260507184005 | 40 | 225 | 0.0 | 3.0 | 0.00 | 1.03 | 1.03 | 17 | 1023.6 |
| 20260507183007 | 42 | 90 | 1.0 | 2.0 | 0.00 | 1.03 | 1.03 | 17 | 1023.7 |
| 20260507182006 | 42 | 135 | 1.0 | 3.0 | 0.00 | 1.03 | 1.03 | 17 | 1023.6 |
| 20260507181006 | 43 | 90 | 1.0 | 6.0 | 0.00 | 1.03 | 1.03 | 17 | 1023.4 |
| 20260507175005 | 43 | 45 | 3.0 | 8.0 | 0.00 | 1.03 | 1.03 | 17 | 1023.4 |
| 20260507174006 | 44 | 90 | 3.0 | 8.0 | 0.00 | 1.03 | 1.03 | 17 | 1023.3 |
| 20260507173006 | 43 | 90 | 5.0 | 9.0 | 0.00 | 1.03 | 1.03 | 17 | 1023.1 |
| 20260507171005 | 43 | 202 | 2.0 | 6.0 | 0.00 | 1.03 | 1.03 | 17 | 1023.3 |
| 20260507165006 | 45 | 90 | 4.0 | 8.0 | 0.00 | 1.03 | 1.03 | 17 | 1023.0 |
| 20260507164005 | 47 | 45 | 3.0 | 8.0 | 0.00 | 1.03 | 1.03 | 17 | 1023.1 |
| 20260507163006 | 46 | 90 | 5.0 | 8.0 | 0.00 | 1.03 | 1.03 | 17 | 1023.0 |
| 20260507162006 | 45 | 45 | 3.0 | 8.0 | 0.00 | 1.03 | 1.03 | 17 | 1022.7 |
| 20260507161006 | 45 | 90 | 3.0 | 8.0 | 0.00 | 1.03 | 1.03 | 17 | 1022.6 |
| 20260507155006 | 45 | 90 | 3.0 | 8.0 | 0.00 | 1.03 | 1.03 | 17 | 1022.7 |
| 20260507154008 | 46 | 45 | 5.0 | 10.0 | 0.00 | 1.03 | 1.03 | 17 | 1022.5 |
| 20260507153005 | 47 | 90 | 4.0 | 8.0 | 0.00 | 1.03 | 1.03 | 17 | 1022.2 |
| 20260507152005 | 46 | 90 | 4.0 | 9.0 | 0.50 | 1.03 | 1.03 | 17 | 1022.3 |
| 20260507151006 | 45 | 45 | 6.0 | 9.0 | 0.50 | 1.03 | 1.03 | 17 | 1022.2 |
| 20260507145005 | 45 | 45 | 5.0 | 10.0 | 0.50 | 1.03 | 1.03 | 17 | 1022.0 |
| 20260507144005 | 44 | 90 | 4.0 | 10.0 | 0.50 | 1.03 | 1.03 | 17 | 1022.2 |
| 20260507142006 | 45 | 90 | 5.0 | 10.0 | 0.00 | 1.03 | 1.03 | 17 | 1022.0 |
| 20260507141007 | 44 | 90 | 5.0 | 10.0 | 0.00 | 1.03 | 1.03 | 17 | 1022.0 |
| 20260507135006 | 45 | 45 | 5.0 | 10.0 | 0.00 | 1.03 | 1.03 | 17 | 1022.2 |
| 20260507134006 | 46 | 135 | 5.0 | 12.0 | 0.00 | 1.03 | 1.03 | 17 | 1022.0 |
| 20260507133006 | 47 | 90 | 3.0 | 10.0 | 0.00 | 1.03 | 1.03 | 17 | 1022.0 |
| 20260507132007 | 46 | 90 | 3.0 | 8.0 | 0.00 | 1.03 | 1.03 | 17 | 1022.1 |
| 20260507131006 | 45 | 90 | 4.0 | 8.0 | 0.00 | 1.03 | 1.03 | 17 | 1022.3 |
| 20260507125005 | 44 | 135 | 5.0 | 10.0 | 0.00 | 1.04 | 1.03 | 17 | 1022.1 |
| 20260507124006 | 44 | 135 | 5.0 | 10.0 | 0.00 | 1.04 | 1.03 | 17 | 1022.2 |
| 20260507123005 | 42 | 45 | 3.0 | 9.0 | 0.00 | 1.04 | 1.03 | 17 | 1022.4 |
| 20260507122005 | 42 | 90 | 3.0 | 10.0 | 0.00 | 1.04 | 1.03 | 17 | 1022.5 |
| 20260507115005 | 42 | 90 | 6.0 | 10.0 | 0.00 | 1.04 | 1.03 | 17 | 1022.5 |
| 20260507114005 | 43 | 90 | 6.0 | 8.0 | 0.00 | 1.04 | 1.03 | 17 | 1022.5 |
| 20260507113006 | 44 | 90 | 5.0 | 8.0 | 0.00 | 1.04 | 1.03 | 17 | 1022.4 |
| 20260507111007 | 45 | 90 | 7.0 | 10.0 | 0.00 | 1.04 | 1.03 | 17 | 1022.4 |
| 20260507104006 | 45 | 45 | 4.0 | 12.0 | 0.00 | 1.04 | 1.03 | 17 | 1022.5 |
| 20260507103005 | 45 | 180 | 7.0 | 14.0 | 0.00 | 1.04 | 1.03 | 17 | 1023.0 |
| 20260507101006 | 45 | 0 | 3.0 | 8.0 | 0.00 | 1.04 | 1.03 | 17 | 1023.0 |
| 20260507095006 | 46 | 45 | 1.0 | 6.0 | 0.00 | 1.04 | 1.03 | 17 | 1022.8 |
| 20260507094007 | 47 | 225 | 1.0 | 5.0 | 0.00 | 1.04 | 1.03 | 17 | 1022.8 |
| 20260507093006 | 47 | 45 | 1.0 | 5.0 | 0.00 | 1.04 | 1.03 | 17 | 1022.7 |